sensor_id;sensor_type;location;lat;lon;timestamp;temperature;humidity
6758;DHT22;3416;53.074;8.822;2023-03-19T00:00:18;10.50;99.90
6758;DHT22;3416;53.074;8.822;2023-03-19T00:02:45;10.60;99.90
6758;DHT22;3416;53.074;8.822;2023-03-19T00:05:15;10.50;99.90
6758;DHT22;3416;53.074;8.822;2023-03-19T00:07:43;10.50;99.90
6758;DHT22;3416;53.074;8.822;2023-03-19T00:10:10;10.60;99.90
6758;DHT22;3416;53.074;8.822;2023-03-19T00:12:38;10.50;99.90
6758;DHT22;3416;53.074;8.822;2023-03-19T00:15:07;10.50;99.90
6758;DHT22;3416;53.074;8.822;2023-03-19T00:17:39;10.50;99.90
6758;DHT22;3416;53.074;8.822;2023-03-19T00:20:08;10.50;99.90
6758;DHT22;3416;53.074;8.822;2023-03-19T00:22:36;10.40;99.90
6758;DHT22;3416;53.074;8.822;2023-03-19T00:25:03;10.40;99.90
6758;DHT22;3416;53.074;8.822;2023-03-19T00:27:30;10.40;99.90
6758;DHT22;3416;53.074;8.822;2023-03-19T00:29:57;10.30;99.90
6758;DHT22;3416;53.074;8.822;2023-03-19T00:32:26;10.30;99.90
6758;DHT22;3416;53.074;8.822;2023-03-19T00:34:53;10.30;99.90
6758;DHT22;3416;53.074;8.822;2023-03-19T00:37:20;10.30;99.90
6758;DHT22;3416;53.074;8.822;2023-03-19T00:39:47;10.20;99.90
6758;DHT22;3416;53.074;8.822;2023-03-19T00:42:14;10.20;99.90
6758;DHT22;3416;53.074;8.822;2023-03-19T00:44:41;10.30;99.90
6758;DHT22;3416;53.074;8.822;2023-03-19T00:47:09;10.30;99.90
6758;DHT22;3416;53.074;8.822;2023-03-19T00:49:38;10.30;99.90
6758;DHT22;3416;53.074;8.822;2023-03-19T00:52:05;10.30;99.90
6758;DHT22;3416;53.074;8.822;2023-03-19T00:54:32;10.20;99.90
6758;DHT22;3416;53.074;8.822;2023-03-19T00:57:00;10.20;99.90
6758;DHT22;3416;53.074;8.822;2023-03-19T00:59:27;10.20;99.90
6758;DHT22;3416;53.074;8.822;2023-03-19T01:01:54;10.10;99.90
6758;DHT22;3416;53.074;8.822;2023-03-19T01:04:21;10.10;99.90
6758;DHT22;3416;53.074;8.822;2023-03-19T01:06:51;10.10;99.90
6758;DHT22;3416;53.074;8.822;2023-03-19T01:09:18;10.10;99.90
6758;DHT22;3416;53.074;8.822;2023-03-19T01:11:46;10.20;99.90
6758;DHT22;3416;53.074;8.822;2023-03-19T01:14:14;10.20;99.90
6758;DHT22;3416;53.074;8.822;2023-03-19T01:16:41;10.20;99.90
6758;DHT22;3416;53.074;8.822;2023-03-19T01:19:09;10.20;99.90
6758;DHT22;3416;53.074;8.822;2023-03-19T01:21:36;10.10;99.90
6758;DHT22;3416;53.074;8.822;2023-03-19T01:24:05;10.00;99.90
6758;DHT22;3416;53.074;8.822;2023-03-19T01:26:32;10.00;99.90
6758;DHT22;3416;53.074;8.822;2023-03-19T01:28:59;9.90;99.90
6758;DHT22;3416;53.074;8.822;2023-03-19T01:31:26;9.90;99.90
6758;DHT22;3416;53.074;8.822;2023-03-19T01:33:55;10.00;99.90
6758;DHT22;3416;53.074;8.822;2023-03-19T01:36:22;10.00;99.90
6758;DHT22;3416;53.074;8.822;2023-03-19T01:38:50;10.00;99.90
6758;DHT22;3416;53.074;8.822;2023-03-19T01:41:19;10.00;99.90
6758;DHT22;3416;53.074;8.822;2023-03-19T01:43:46;10.10;99.90
6758;DHT22;3416;53.074;8.822;2023-03-19T01:46:21;10.10;99.90
6758;DHT22;3416;53.074;8.822;2023-03-19T01:48:53;10.20;99.90
6758;DHT22;3416;53.074;8.822;2023-03-19T01:51:24;10.10;99.90
6758;DHT22;3416;53.074;8.822;2023-03-19T01:53:54;10.10;99.90
6758;DHT22;3416;53.074;8.822;2023-03-19T01:56:27;10.10;99.90
6758;DHT22;3416;53.074;8.822;2023-03-19T01:58:59;10.10;99.90
6758;DHT22;3416;53.074;8.822;2023-03-19T02:01:31;10.10;99.90
6758;DHT22;3416;53.074;8.822;2023-03-19T02:03:59;10.10;99.90
6758;DHT22;3416;53.074;8.822;2023-03-19T02:06:26;10.10;99.90
6758;DHT22;3416;53.074;8.822;2023-03-19T02:08:55;10.10;99.90
6758;DHT22;3416;53.074;8.822;2023-03-19T02:11:24;10.00;99.90
6758;DHT22;3416;53.074;8.822;2023-03-19T02:13:52;10.00;99.90
6758;DHT22;3416;53.074;8.822;2023-03-19T02:16:19;10.00;99.90
6758;DHT22;3416;53.074;8.822;2023-03-19T02:18:47;10.00;99.90
6758;DHT22;3416;53.074;8.822;2023-03-19T02:21:16;10.00;99.90
6758;DHT22;3416;53.074;8.822;2023-03-19T02:23:48;9.90;99.90
6758;DHT22;3416;53.074;8.822;2023-03-19T02:26:21;10.00;99.90
6758;DHT22;3416;53.074;8.822;2023-03-19T02:28:50;10.00;99.90
6758;DHT22;3416;53.074;8.822;2023-03-19T02:31:17;10.00;99.90
6758;DHT22;3416;53.074;8.822;2023-03-19T02:33:56;10.00;99.90
6758;DHT22;3416;53.074;8.822;2023-03-19T02:36:26;10.00;99.90
6758;DHT22;3416;53.074;8.822;2023-03-19T02:38:57;10.00;99.90
6758;DHT22;3416;53.074;8.822;2023-03-19T02:41:29;10.10;99.90
6758;DHT22;3416;53.074;8.822;2023-03-19T02:44:08;10.00;99.90
6758;DHT22;3416;53.074;8.822;2023-03-19T02:46:36;10.00;99.90
6758;DHT22;3416;53.074;8.822;2023-03-19T02:49:03;10.10;99.90
6758;DHT22;3416;53.074;8.822;2023-03-19T02:51:30;10.10;99.90
6758;DHT22;3416;53.074;8.822;2023-03-19T02:53:57;10.10;99.90
6758;DHT22;3416;53.074;8.822;2023-03-19T02:56:25;10.10;99.90
6758;DHT22;3416;53.074;8.822;2023-03-19T02:58:54;10.10;99.90
6758;DHT22;3416;53.074;8.822;2023-03-19T03:01:20;10.10;99.90
6758;DHT22;3416;53.074;8.822;2023-03-19T03:03:48;10.10;99.90
6758;DHT22;3416;53.074;8.822;2023-03-19T03:06:15;10.10;99.90
6758;DHT22;3416;53.074;8.822;2023-03-19T03:08:46;10.10;99.90
6758;DHT22;3416;53.074;8.822;2023-03-19T03:11:13;10.20;99.90
6758;DHT22;3416;53.074;8.822;2023-03-19T03:13:40;10.10;99.90
6758;DHT22;3416;53.074;8.822;2023-03-19T03:16:09;10.10;99.90
6758;DHT22;3416;53.074;8.822;2023-03-19T03:18:36;10.10;99.90
6758;DHT22;3416;53.074;8.822;2023-03-19T03:21:03;10.20;99.90
6758;DHT22;3416;53.074;8.822;2023-03-19T03:23:30;10.30;99.90
6758;DHT22;3416;53.074;8.822;2023-03-19T03:25:57;10.30;99.90
6758;DHT22;3416;53.074;8.822;2023-03-19T03:28:24;10.30;99.90
6758;DHT22;3416;53.074;8.822;2023-03-19T03:30:57;10.10;99.90
6758;DHT22;3416;53.074;8.822;2023-03-19T03:33:26;10.10;99.90
6758;DHT22;3416;53.074;8.822;2023-03-19T03:35:53;10.10;99.90
6758;DHT22;3416;53.074;8.822;2023-03-19T03:38:20;10.00;99.90
6758;DHT22;3416;53.074;8.822;2023-03-19T03:40:49;10.10;99.90
6758;DHT22;3416;53.074;8.822;2023-03-19T03:43:17;10.10;99.90
6758;DHT22;3416;53.074;8.822;2023-03-19T03:45:45;10.00;99.90
6758;DHT22;3416;53.074;8.822;2023-03-19T03:48:13;10.00;99.90
6758;DHT22;3416;53.074;8.822;2023-03-19T03:50:41;10.00;99.90
6758;DHT22;3416;53.074;8.822;2023-03-19T03:53:09;10.00;99.90
6758;DHT22;3416;53.074;8.822;2023-03-19T03:55:37;10.00;99.90
6758;DHT22;3416;53.074;8.822;2023-03-19T03:58:05;10.00;99.90
6758;DHT22;3416;53.074;8.822;2023-03-19T04:00:32;10.00;99.90
6758;DHT22;3416;53.074;8.822;2023-03-19T04:02:59;10.00;99.90
6758;DHT22;3416;53.074;8.822;2023-03-19T04:05:26;10.10;99.90
6758;DHT22;3416;53.074;8.822;2023-03-19T04:07:54;10.10;99.90
6758;DHT22;3416;53.074;8.822;2023-03-19T04:10:21;10.10;99.90
6758;DHT22;3416;53.074;8.822;2023-03-19T04:12:49;10.10;99.90
6758;DHT22;3416;53.074;8.822;2023-03-19T04:15:16;10.00;99.90
6758;DHT22;3416;53.074;8.822;2023-03-19T04:17:43;10.00;99.90
6758;DHT22;3416;53.074;8.822;2023-03-19T04:20:11;10.10;99.90
6758;DHT22;3416;53.074;8.822;2023-03-19T04:22:38;10.10;99.90
6758;DHT22;3416;53.074;8.822;2023-03-19T04:25:07;10.10;99.90
6758;DHT22;3416;53.074;8.822;2023-03-19T04:27:34;10.10;99.90
6758;DHT22;3416;53.074;8.822;2023-03-19T04:30:02;10.10;99.90
6758;DHT22;3416;53.074;8.822;2023-03-19T04:32:29;10.10;99.90
6758;DHT22;3416;53.074;8.822;2023-03-19T04:34:58;10.10;99.90
6758;DHT22;3416;53.074;8.822;2023-03-19T04:37:25;10.10;99.90
6758;DHT22;3416;53.074;8.822;2023-03-19T04:39:52;10.10;99.90
6758;DHT22;3416;53.074;8.822;2023-03-19T04:42:21;10.20;99.90
6758;DHT22;3416;53.074;8.822;2023-03-19T04:44:49;10.20;99.90
6758;DHT22;3416;53.074;8.822;2023-03-19T04:47:17;10.20;99.90
6758;DHT22;3416;53.074;8.822;2023-03-19T04:49:44;10.20;99.90
6758;DHT22;3416;53.074;8.822;2023-03-19T04:52:11;10.30;99.90
6758;DHT22;3416;53.074;8.822;2023-03-19T04:54:38;10.30;99.90
6758;DHT22;3416;53.074;8.822;2023-03-19T04:57:05;10.30;99.90
6758;DHT22;3416;53.074;8.822;2023-03-19T04:59:33;10.20;99.90
6758;DHT22;3416;53.074;8.822;2023-03-19T05:02:00;10.30;99.90
6758;DHT22;3416;53.074;8.822;2023-03-19T05:04:27;10.30;99.90
6758;DHT22;3416;53.074;8.822;2023-03-19T05:06:54;10.20;99.90
6758;DHT22;3416;53.074;8.822;2023-03-19T05:09:22;10.20;99.90
6758;DHT22;3416;53.074;8.822;2023-03-19T05:11:49;10.20;99.90
6758;DHT22;3416;53.074;8.822;2023-03-19T05:14:16;10.20;99.90
6758;DHT22;3416;53.074;8.822;2023-03-19T05:16:45;10.20;99.90
6758;DHT22;3416;53.074;8.822;2023-03-19T05:19:12;10.20;99.90
6758;DHT22;3416;53.074;8.822;2023-03-19T05:21:39;10.20;99.90
6758;DHT22;3416;53.074;8.822;2023-03-19T05:24:08;10.20;99.90
6758;DHT22;3416;53.074;8.822;2023-03-19T05:26:35;10.20;99.90
6758;DHT22;3416;53.074;8.822;2023-03-19T05:29:03;10.20;99.90
6758;DHT22;3416;53.074;8.822;2023-03-19T05:31:30;10.30;99.90
6758;DHT22;3416;53.074;8.822;2023-03-19T05:33:58;10.30;99.90
6758;DHT22;3416;53.074;8.822;2023-03-19T05:36:25;10.30;99.90
6758;DHT22;3416;53.074;8.822;2023-03-19T05:38:53;10.30;99.90
6758;DHT22;3416;53.074;8.822;2023-03-19T05:41:20;10.30;99.90
6758;DHT22;3416;53.074;8.822;2023-03-19T05:43:47;10.30;99.90
6758;DHT22;3416;53.074;8.822;2023-03-19T05:46:15;10.30;99.90
6758;DHT22;3416;53.074;8.822;2023-03-19T05:48:42;10.30;99.90
6758;DHT22;3416;53.074;8.822;2023-03-19T05:51:13;10.30;99.90
6758;DHT22;3416;53.074;8.822;2023-03-19T05:53:40;10.20;99.90
6758;DHT22;3416;53.074;8.822;2023-03-19T05:56:07;10.20;99.90
6758;DHT22;3416;53.074;8.822;2023-03-19T05:58:34;10.30;99.90
6758;DHT22;3416;53.074;8.822;2023-03-19T06:01:01;10.30;99.90
6758;DHT22;3416;53.074;8.822;2023-03-19T06:03:28;10.30;99.90
6758;DHT22;3416;53.074;8.822;2023-03-19T06:05:55;10.20;99.90
6758;DHT22;3416;53.074;8.822;2023-03-19T06:08:24;10.30;99.90
6758;DHT22;3416;53.074;8.822;2023-03-19T06:10:52;10.30;99.90
6758;DHT22;3416;53.074;8.822;2023-03-19T06:13:19;10.40;99.90
6758;DHT22;3416;53.074;8.822;2023-03-19T06:15:47;10.40;99.90
6758;DHT22;3416;53.074;8.822;2023-03-19T06:18:15;10.50;99.90
6758;DHT22;3416;53.074;8.822;2023-03-19T06:20:42;10.50;99.90
6758;DHT22;3416;53.074;8.822;2023-03-19T06:23:09;10.60;99.90
6758;DHT22;3416;53.074;8.822;2023-03-19T06:25:37;10.80;99.90
6758;DHT22;3416;53.074;8.822;2023-03-19T06:28:05;10.90;99.90
6758;DHT22;3416;53.074;8.822;2023-03-19T06:30:33;11.10;99.90
6758;DHT22;3416;53.074;8.822;2023-03-19T06:33:00;11.30;99.90
6758;DHT22;3416;53.074;8.822;2023-03-19T06:35:27;11.50;99.90
6758;DHT22;3416;53.074;8.822;2023-03-19T06:37:54;11.70;99.90
6758;DHT22;3416;53.074;8.822;2023-03-19T06:40:20;11.80;99.90
6758;DHT22;3416;53.074;8.822;2023-03-19T06:42:49;12.00;99.90
6758;DHT22;3416;53.074;8.822;2023-03-19T06:45:17;12.50;99.90
6758;DHT22;3416;53.074;8.822;2023-03-19T06:47:45;13.20;99.90
6758;DHT22;3416;53.074;8.822;2023-03-19T06:50:13;14.00;99.90
6758;DHT22;3416;53.074;8.822;2023-03-19T06:52:40;14.20;99.90
6758;DHT22;3416;53.074;8.822;2023-03-19T06:55:08;13.80;99.90
6758;DHT22;3416;53.074;8.822;2023-03-19T06:57:36;13.50;99.90
6758;DHT22;3416;53.074;8.822;2023-03-19T07:00:07;13.20;99.90
6758;DHT22;3416;53.074;8.822;2023-03-19T07:02:35;13.10;99.90
6758;DHT22;3416;53.074;8.822;2023-03-19T07:05:04;13.10;99.90
6758;DHT22;3416;53.074;8.822;2023-03-19T07:07:32;13.00;99.90
6758;DHT22;3416;53.074;8.822;2023-03-19T07:09:59;12.70;99.90
6758;DHT22;3416;53.074;8.822;2023-03-19T07:12:26;12.80;99.90
6758;DHT22;3416;53.074;8.822;2023-03-19T07:14:55;12.60;99.90
6758;DHT22;3416;53.074;8.822;2023-03-19T07:17:24;12.40;99.90
6758;DHT22;3416;53.074;8.822;2023-03-19T07:19:51;12.30;99.90
6758;DHT22;3416;53.074;8.822;2023-03-19T07:22:18;12.30;99.90
6758;DHT22;3416;53.074;8.822;2023-03-19T07:24:46;12.20;99.90
6758;DHT22;3416;53.074;8.822;2023-03-19T07:27:13;12.20;99.90
6758;DHT22;3416;53.074;8.822;2023-03-19T07:29:40;12.10;99.90
6758;DHT22;3416;53.074;8.822;2023-03-19T07:32:08;12.10;99.90
6758;DHT22;3416;53.074;8.822;2023-03-19T07:34:36;12.10;99.90
6758;DHT22;3416;53.074;8.822;2023-03-19T07:37:03;12.00;99.90
6758;DHT22;3416;53.074;8.822;2023-03-19T07:39:32;12.00;99.90
6758;DHT22;3416;53.074;8.822;2023-03-19T07:41:59;12.00;99.90
6758;DHT22;3416;53.074;8.822;2023-03-19T07:44:26;12.20;99.90
6758;DHT22;3416;53.074;8.822;2023-03-19T07:46:53;12.20;99.90
6758;DHT22;3416;53.074;8.822;2023-03-19T07:49:20;12.30;99.90
6758;DHT22;3416;53.074;8.822;2023-03-19T07:51:49;12.50;99.90
6758;DHT22;3416;53.074;8.822;2023-03-19T07:54:16;12.60;99.90
6758;DHT22;3416;53.074;8.822;2023-03-19T07:56:43;12.60;99.90
6758;DHT22;3416;53.074;8.822;2023-03-19T07:59:10;12.50;99.90
6758;DHT22;3416;53.074;8.822;2023-03-19T08:01:37;12.50;99.90
6758;DHT22;3416;53.074;8.822;2023-03-19T08:04:04;12.60;99.90
6758;DHT22;3416;53.074;8.822;2023-03-19T08:06:31;12.70;99.90
6758;DHT22;3416;53.074;8.822;2023-03-19T08:09:00;12.70;99.90
6758;DHT22;3416;53.074;8.822;2023-03-19T08:11:28;12.80;99.90
6758;DHT22;3416;53.074;8.822;2023-03-19T08:13:55;12.90;99.90
6758;DHT22;3416;53.074;8.822;2023-03-19T08:16:24;13.00;99.90
6758;DHT22;3416;53.074;8.822;2023-03-19T08:18:51;13.10;99.90
6758;DHT22;3416;53.074;8.822;2023-03-19T08:21:18;13.20;99.90
6758;DHT22;3416;53.074;8.822;2023-03-19T08:23:45;13.30;99.90
6758;DHT22;3416;53.074;8.822;2023-03-19T08:26:13;13.40;99.90
6758;DHT22;3416;53.074;8.822;2023-03-19T08:28:42;13.50;99.90
6758;DHT22;3416;53.074;8.822;2023-03-19T08:31:11;13.70;99.90
6758;DHT22;3416;53.074;8.822;2023-03-19T08:33:38;13.90;99.90
6758;DHT22;3416;53.074;8.822;2023-03-19T08:36:07;14.00;99.90
6758;DHT22;3416;53.074;8.822;2023-03-19T08:38:35;13.90;99.90
6758;DHT22;3416;53.074;8.822;2023-03-19T08:41:02;13.90;99.90
6758;DHT22;3416;53.074;8.822;2023-03-19T08:43:33;14.00;99.90
6758;DHT22;3416;53.074;8.822;2023-03-19T08:46:03;14.00;99.90
6758;DHT22;3416;53.074;8.822;2023-03-19T08:48:30;14.00;99.90
6758;DHT22;3416;53.074;8.822;2023-03-19T08:50:59;14.20;99.90
6758;DHT22;3416;53.074;8.822;2023-03-19T08:53:27;14.30;99.90
6758;DHT22;3416;53.074;8.822;2023-03-19T08:55:56;14.40;99.90
6758;DHT22;3416;53.074;8.822;2023-03-19T08:58:24;14.60;99.90
6758;DHT22;3416;53.074;8.822;2023-03-19T09:00:59;14.70;99.90
6758;DHT22;3416;53.074;8.822;2023-03-19T09:03:28;14.80;99.90
6758;DHT22;3416;53.074;8.822;2023-03-19T09:05:57;14.80;99.90
6758;DHT22;3416;53.074;8.822;2023-03-19T09:08:25;14.90;99.90
6758;DHT22;3416;53.074;8.822;2023-03-19T09:10:52;14.80;99.90
6758;DHT22;3416;53.074;8.822;2023-03-19T09:13:21;15.10;99.90
6758;DHT22;3416;53.074;8.822;2023-03-19T09:15:48;15.00;99.90
6758;DHT22;3416;53.074;8.822;2023-03-19T09:18:17;14.90;99.90
6758;DHT22;3416;53.074;8.822;2023-03-19T09:20:45;15.20;99.90
6758;DHT22;3416;53.074;8.822;2023-03-19T09:23:13;15.40;99.90
6758;DHT22;3416;53.074;8.822;2023-03-19T09:25:41;15.70;99.90
6758;DHT22;3416;53.074;8.822;2023-03-19T09:28:09;16.00;99.90
6758;DHT22;3416;53.074;8.822;2023-03-19T09:30:36;16.20;99.90
6758;DHT22;3416;53.074;8.822;2023-03-19T09:33:04;16.50;99.90
6758;DHT22;3416;53.074;8.822;2023-03-19T09:35:34;17.40;99.90
6758;DHT22;3416;53.074;8.822;2023-03-19T09:38:01;18.90;99.90
6758;DHT22;3416;53.074;8.822;2023-03-19T09:40:34;20.50;99.90
6758;DHT22;3416;53.074;8.822;2023-03-19T09:43:16;20.90;99.90
6758;DHT22;3416;53.074;8.822;2023-03-19T09:45:50;20.60;99.90
6758;DHT22;3416;53.074;8.822;2023-03-19T09:48:23;20.40;99.90
6758;DHT22;3416;53.074;8.822;2023-03-19T09:50:55;20.10;99.90
6758;DHT22;3416;53.074;8.822;2023-03-19T09:53:31;19.90;99.90
6758;DHT22;3416;53.074;8.822;2023-03-19T09:56:04;19.30;99.90
6758;DHT22;3416;53.074;8.822;2023-03-19T09:58:35;18.50;99.90
6758;DHT22;3416;53.074;8.822;2023-03-19T10:01:03;18.60;99.90
6758;DHT22;3416;53.074;8.822;2023-03-19T10:03:41;18.10;99.90
6758;DHT22;3416;53.074;8.822;2023-03-19T10:06:23;18.00;99.90
6758;DHT22;3416;53.074;8.822;2023-03-19T10:09:25;17.10;99.90
6758;DHT22;3416;53.074;8.822;2023-03-19T10:12:09;17.00;99.90
6758;DHT22;3416;53.074;8.822;2023-03-19T10:15:21;16.90;99.90
6758;DHT22;3416;53.074;8.822;2023-03-19T10:18:03;17.00;99.90
6758;DHT22;3416;53.074;8.822;2023-03-19T10:21:00;17.30;99.90
6758;DHT22;3416;53.074;8.822;2023-03-19T10:23:54;17.70;99.90
6758;DHT22;3416;53.074;8.822;2023-03-19T10:26:29;18.00;99.90
6758;DHT22;3416;53.074;8.822;2023-03-19T10:29:22;18.90;99.90
6758;DHT22;3416;53.074;8.822;2023-03-19T10:31:57;20.00;98.60
6758;DHT22;3416;53.074;8.822;2023-03-19T10:34:32;20.30;96.00
6758;DHT22;3416;53.074;8.822;2023-03-19T10:37:12;20.50;95.20
6758;DHT22;3416;53.074;8.822;2023-03-19T10:40:05;20.40;95.00
6758;DHT22;3416;53.074;8.822;2023-03-19T10:43:03;19.80;95.30
6758;DHT22;3416;53.074;8.822;2023-03-19T10:45:44;18.80;97.10
6758;DHT22;3416;53.074;8.822;2023-03-19T10:48:31;18.40;98.30
6758;DHT22;3416;53.074;8.822;2023-03-19T10:51:05;17.80;99.80
6758;DHT22;3416;53.074;8.822;2023-03-19T10:53:40;17.20;99.90
6758;DHT22;3416;53.074;8.822;2023-03-19T10:56:25;17.10;99.90
6758;DHT22;3416;53.074;8.822;2023-03-19T10:59:22;17.10;99.90
6758;DHT22;3416;53.074;8.822;2023-03-19T11:02:19;16.80;99.90
6758;DHT22;3416;53.074;8.822;2023-03-19T11:05:28;16.80;99.90
6758;DHT22;3416;53.074;8.822;2023-03-19T11:08:16;16.60;99.90
6758;DHT22;3416;53.074;8.822;2023-03-19T11:10:53;16.30;99.90
6758;DHT22;3416;53.074;8.822;2023-03-19T11:13:40;16.20;99.90
6758;DHT22;3416;53.074;8.822;2023-03-19T11:19:26;16.30;99.90
6758;DHT22;3416;53.074;8.822;2023-03-19T11:22:02;16.30;99.90
6758;DHT22;3416;53.074;8.822;2023-03-19T11:24:51;16.30;99.90
6758;DHT22;3416;53.074;8.822;2023-03-19T11:27:19;16.20;99.90
6758;DHT22;3416;53.074;8.822;2023-03-19T11:29:55;16.30;99.90
6758;DHT22;3416;53.074;8.822;2023-03-19T11:35:29;15.90;99.90
6758;DHT22;3416;53.074;8.822;2023-03-19T11:38:00;15.90;99.90
6758;DHT22;3416;53.074;8.822;2023-03-19T11:40:35;15.80;99.90
6758;DHT22;3416;53.074;8.822;2023-03-19T11:43:29;15.80;99.90
6758;DHT22;3416;53.074;8.822;2023-03-19T11:46:11;15.70;99.90
6758;DHT22;3416;53.074;8.822;2023-03-19T11:48:56;15.70;99.90
6758;DHT22;3416;53.074;8.822;2023-03-19T11:51:31;15.90;99.90
6758;DHT22;3416;53.074;8.822;2023-03-19T11:54:04;16.00;99.90
6758;DHT22;3416;53.074;8.822;2023-03-19T11:56:39;16.10;99.90
6758;DHT22;3416;53.074;8.822;2023-03-19T11:59:16;16.20;99.90
6758;DHT22;3416;53.074;8.822;2023-03-19T12:05:22;16.50;99.90
6758;DHT22;3416;53.074;8.822;2023-03-19T12:08:12;16.70;99.90
6758;DHT22;3416;53.074;8.822;2023-03-19T12:10:51;16.80;99.90
6758;DHT22;3416;53.074;8.822;2023-03-19T12:13:40;16.50;99.90
6758;DHT22;3416;53.074;8.822;2023-03-19T12:16:16;16.10;99.90
6758;DHT22;3416;53.074;8.822;2023-03-19T12:19:09;16.00;99.90
6758;DHT22;3416;53.074;8.822;2023-03-19T12:21:51;15.70;99.90
6758;DHT22;3416;53.074;8.822;2023-03-19T12:24:26;15.60;99.90
6758;DHT22;3416;53.074;8.822;2023-03-19T12:27:04;14.60;99.90
6758;DHT22;3416;53.074;8.822;2023-03-19T12:29:41;14.10;99.90
6758;DHT22;3416;53.074;8.822;2023-03-19T12:32:34;13.80;99.90
6758;DHT22;3416;53.074;8.822;2023-03-19T12:35:09;13.60;99.90
6758;DHT22;3416;53.074;8.822;2023-03-19T12:37:41;13.50;99.90
6758;DHT22;3416;53.074;8.822;2023-03-19T12:40:25;13.40;99.90
6758;DHT22;3416;53.074;8.822;2023-03-19T12:42:56;13.50;99.90
6758;DHT22;3416;53.074;8.822;2023-03-19T12:45:31;13.70;99.90
6758;DHT22;3416;53.074;8.822;2023-03-19T12:48:05;14.30;99.90
6758;DHT22;3416;53.074;8.822;2023-03-19T12:50:36;14.80;99.90
6758;DHT22;3416;53.074;8.822;2023-03-19T12:53:06;15.50;99.90
6758;DHT22;3416;53.074;8.822;2023-03-19T12:55:39;15.90;99.90
6758;DHT22;3416;53.074;8.822;2023-03-19T12:58:13;15.90;99.90
6758;DHT22;3416;53.074;8.822;2023-03-19T13:00:49;16.00;99.90
6758;DHT22;3416;53.074;8.822;2023-03-19T13:03:21;15.70;99.90
6758;DHT22;3416;53.074;8.822;2023-03-19T13:05:58;15.40;99.90
6758;DHT22;3416;53.074;8.822;2023-03-19T13:08:30;15.40;99.90
6758;DHT22;3416;53.074;8.822;2023-03-19T13:10:59;15.60;99.90
6758;DHT22;3416;53.074;8.822;2023-03-19T13:13:35;15.50;99.90
6758;DHT22;3416;53.074;8.822;2023-03-19T13:16:12;15.60;99.90
6758;DHT22;3416;53.074;8.822;2023-03-19T13:18:50;15.70;99.90
6758;DHT22;3416;53.074;8.822;2023-03-19T13:21:28;15.60;99.90
6758;DHT22;3416;53.074;8.822;2023-03-19T13:24:03;15.90;99.90
6758;DHT22;3416;53.074;8.822;2023-03-19T13:26:34;15.80;99.90
6758;DHT22;3416;53.074;8.822;2023-03-19T13:29:08;15.90;99.90
6758;DHT22;3416;53.074;8.822;2023-03-19T13:31:42;16.30;99.90
6758;DHT22;3416;53.074;8.822;2023-03-19T13:34:19;16.40;99.90
6758;DHT22;3416;53.074;8.822;2023-03-19T13:36:52;16.50;99.90
6758;DHT22;3416;53.074;8.822;2023-03-19T13:39:25;16.40;99.90
6758;DHT22;3416;53.074;8.822;2023-03-19T13:42:10;16.60;99.90
6758;DHT22;3416;53.074;8.822;2023-03-19T13:44:49;16.50;99.90
6758;DHT22;3416;53.074;8.822;2023-03-19T13:47:41;16.30;99.90
6758;DHT22;3416;53.074;8.822;2023-03-19T13:50:23;16.40;99.90
6758;DHT22;3416;53.074;8.822;2023-03-19T13:52:53;16.40;99.90
6758;DHT22;3416;53.074;8.822;2023-03-19T13:55:58;16.20;99.90
6758;DHT22;3416;53.074;8.822;2023-03-19T13:58:27;16.40;99.90
6758;DHT22;3416;53.074;8.822;2023-03-19T14:01:34;16.40;99.90
6758;DHT22;3416;53.074;8.822;2023-03-19T14:04:14;16.50;99.90
6758;DHT22;3416;53.074;8.822;2023-03-19T14:06:44;16.30;99.90
6758;DHT22;3416;53.074;8.822;2023-03-19T14:09:34;16.50;99.90
6758;DHT22;3416;53.074;8.822;2023-03-19T14:12:28;16.50;99.90
6758;DHT22;3416;53.074;8.822;2023-03-19T14:14:59;16.60;99.90
6758;DHT22;3416;53.074;8.822;2023-03-19T14:17:32;16.90;99.90
6758;DHT22;3416;53.074;8.822;2023-03-19T14:20:19;17.00;99.90
6758;DHT22;3416;53.074;8.822;2023-03-19T14:23:01;17.00;99.90
6758;DHT22;3416;53.074;8.822;2023-03-19T14:28:40;16.60;99.90
6758;DHT22;3416;53.074;8.822;2023-03-19T14:31:28;16.60;99.90
6758;DHT22;3416;53.074;8.822;2023-03-19T14:34:13;16.80;99.90
6758;DHT22;3416;53.074;8.822;2023-03-19T14:36:43;16.80;99.90
6758;DHT22;3416;53.074;8.822;2023-03-19T14:39:18;16.80;99.90
6758;DHT22;3416;53.074;8.822;2023-03-19T14:41:49;16.90;99.90
6758;DHT22;3416;53.074;8.822;2023-03-19T14:47:24;16.90;99.90
6758;DHT22;3416;53.074;8.822;2023-03-19T14:52:58;17.00;99.90
6758;DHT22;3416;53.074;8.822;2023-03-19T14:55:37;17.10;99.90
6758;DHT22;3416;53.074;8.822;2023-03-19T14:58:04;17.00;99.90
6758;DHT22;3416;53.074;8.822;2023-03-19T15:00:40;16.80;99.90
6758;DHT22;3416;53.074;8.822;2023-03-19T15:03:21;16.90;99.90
6758;DHT22;3416;53.074;8.822;2023-03-19T15:05:50;16.50;99.90
6758;DHT22;3416;53.074;8.822;2023-03-19T15:08:24;16.40;99.90
6758;DHT22;3416;53.074;8.822;2023-03-19T15:11:00;16.30;99.90
6758;DHT22;3416;53.074;8.822;2023-03-19T15:13:39;16.20;99.90
6758;DHT22;3416;53.074;8.822;2023-03-19T15:16:20;16.10;99.90
6758;DHT22;3416;53.074;8.822;2023-03-19T15:18:48;16.10;99.90
6758;DHT22;3416;53.074;8.822;2023-03-19T15:21:17;16.10;99.90
6758;DHT22;3416;53.074;8.822;2023-03-19T15:23:45;16.20;99.90
6758;DHT22;3416;53.074;8.822;2023-03-19T15:26:12;16.50;99.90
6758;DHT22;3416;53.074;8.822;2023-03-19T15:28:46;16.70;99.90
6758;DHT22;3416;53.074;8.822;2023-03-19T15:31:15;16.80;99.90
6758;DHT22;3416;53.074;8.822;2023-03-19T15:33:43;16.70;99.90
6758;DHT22;3416;53.074;8.822;2023-03-19T15:36:13;16.60;99.90
6758;DHT22;3416;53.074;8.822;2023-03-19T15:42:04;16.60;99.90
6758;DHT22;3416;53.074;8.822;2023-03-19T15:44:34;16.50;99.90
6758;DHT22;3416;53.074;8.822;2023-03-19T15:47:06;16.50;99.90
6758;DHT22;3416;53.074;8.822;2023-03-19T15:49:37;16.60;99.90
6758;DHT22;3416;53.074;8.822;2023-03-19T15:52:09;16.70;99.90
6758;DHT22;3416;53.074;8.822;2023-03-19T15:54:37;16.70;99.90
6758;DHT22;3416;53.074;8.822;2023-03-19T15:57:06;16.60;99.90
6758;DHT22;3416;53.074;8.822;2023-03-19T15:59:34;16.60;99.90
6758;DHT22;3416;53.074;8.822;2023-03-19T16:02:20;16.50;99.90
6758;DHT22;3416;53.074;8.822;2023-03-19T16:04:50;16.20;99.90
6758;DHT22;3416;53.074;8.822;2023-03-19T16:07:23;16.10;99.90
6758;DHT22;3416;53.074;8.822;2023-03-19T16:09:58;16.10;99.90
6758;DHT22;3416;53.074;8.822;2023-03-19T16:12:35;16.00;99.90
6758;DHT22;3416;53.074;8.822;2023-03-19T16:15:21;15.90;99.90
6758;DHT22;3416;53.074;8.822;2023-03-19T16:17:50;15.90;99.90
6758;DHT22;3416;53.074;8.822;2023-03-19T16:20:17;15.80;99.90
6758;DHT22;3416;53.074;8.822;2023-03-19T16:22:54;15.80;99.90
6758;DHT22;3416;53.074;8.822;2023-03-19T16:25:30;15.80;99.90
6758;DHT22;3416;53.074;8.822;2023-03-19T16:27:58;15.80;99.90
6758;DHT22;3416;53.074;8.822;2023-03-19T16:30:26;15.70;99.90
6758;DHT22;3416;53.074;8.822;2023-03-19T16:33:00;15.60;99.90
6758;DHT22;3416;53.074;8.822;2023-03-19T16:35:29;15.50;99.90
6758;DHT22;3416;53.074;8.822;2023-03-19T16:38:09;15.50;99.90
6758;DHT22;3416;53.074;8.822;2023-03-19T16:40:43;15.40;99.90
6758;DHT22;3416;53.074;8.822;2023-03-19T16:43:17;15.30;99.90
6758;DHT22;3416;53.074;8.822;2023-03-19T16:45:49;15.30;99.90
6758;DHT22;3416;53.074;8.822;2023-03-19T16:48:25;15.20;99.90
6758;DHT22;3416;53.074;8.822;2023-03-19T16:50:52;15.10;99.90
6758;DHT22;3416;53.074;8.822;2023-03-19T16:53:23;15.00;99.90